PWSweather.com
Personal Weather Stations
Station Observations
K4FB1
Clubhouse Heritage, Lakeland, FL 33812

Clubhouse HeritageLakeland, FL 33812

Lat: 27.969224, Lon: -81.897769

Elevation: 145

Station Type: Davis Vantage Pro2

http://www.ClubhouseWX.com

High Low Average
Temperature 90.8°F32.7°C 68.5°F20.3°C 75.2°F24.0°C
Dew Point 75.1°F23.9°C -31.2°F-35.1°C -0.9°F-18.3°C
Winds 10.0 mph 16.1 kmh 1.0 mph 1.6 kmh 4.0 mph SE6.4 kmh SE
Wind Gusts 17.0 mph27.4 kmh 3.0 mph4.8 kmh 8.0 mph12.9 kmh
Humidity 63% 0% 14%
Pressure 29.98 in1015.2 mb 29.89 in1012.2 mb -
Precipitation 0.81 in20.6 mm - -
Hour Temp Dew Point Humidity Winds Wind Gusts Pressure Precip Precip Rate Daily Precip Total
12:00 AM 71.7°F22.1°C -31.2°F-35.1°C 0% 4.0 mph SE6.4 kmh SE 8.0 mph12.9 kmh 29.93 in1013.5 mb 0.00 in0.0 mm 0.00 in0.0 mm 0.00 in0.0 mm
12:05 AM 71.7°F22.1°C -31.2°F-35.1°C 0% 4.0 mph SE6.4 kmh SE 8.0 mph12.9 kmh 29.93 in1013.5 mb 0.00 in0.0 mm 0.00 in0.0 mm 0.00 in0.0 mm
12:10 AM 71.7°F22.1°C -31.2°F-35.1°C 0% 4.0 mph SE6.4 kmh SE 8.0 mph12.9 kmh 29.93 in1013.5 mb 0.00 in0.0 mm 0.00 in0.0 mm 0.00 in0.0 mm
12:15 AM 71.8°F22.1°C -31.2°F-35.1°C 0% 3.0 mph SE4.8 kmh SE 8.0 mph12.9 kmh 29.93 in1013.5 mb 0.00 in0.0 mm 0.00 in0.0 mm 0.00 in0.0 mm
12:20 AM 71.8°F22.1°C -31.2°F-35.1°C 0% 4.0 mph SE6.4 kmh SE 8.0 mph12.9 kmh 29.93 in1013.5 mb 0.00 in0.0 mm 0.00 in0.0 mm 0.00 in0.0 mm
12:25 AM 71.8°F22.1°C -31.2°F-35.1°C 0% 4.0 mph SE6.4 kmh SE 10.0 mph16.1 kmh 29.93 in1013.5 mb 0.00 in0.0 mm 0.00 in0.0 mm 0.00 in0.0 mm
12:30 AM 71.8°F22.1°C -31.2°F-35.1°C 0% 4.0 mph SE6.4 kmh SE 10.0 mph16.1 kmh 29.93 in1013.5 mb 0.00 in0.0 mm 0.00 in0.0 mm 0.00 in0.0 mm
12:35 AM 71.9°F22.2°C -31.2°F-35.1°C 0% 4.0 mph SE6.4 kmh SE 8.0 mph12.9 kmh 29.93 in1013.5 mb 0.00 in0.0 mm 0.00 in0.0 mm 0.00 in0.0 mm
12:40 AM 71.9°F22.2°C -31.2°F-35.1°C 0% 4.0 mph SE6.4 kmh SE 9.0 mph14.5 kmh 29.93 in1013.5 mb 0.00 in0.0 mm 0.00 in0.0 mm 0.00 in0.0 mm
12:45 AM 71.9°F22.2°C -31.2°F-35.1°C 0% 4.0 mph ESE6.4 kmh ESE 9.0 mph14.5 kmh 29.93 in1013.5 mb 0.00 in0.0 mm 0.00 in0.0 mm 0.00 in0.0 mm
12:50 AM 71.9°F22.2°C -31.2°F-35.1°C 0% 5.0 mph SE8.0 kmh SE 11.0 mph17.7 kmh 29.93 in1013.5 mb 0.00 in0.0 mm 0.00 in0.0 mm 0.00 in0.0 mm
12:55 AM 71.9°F22.2°C -31.2°F-35.1°C 0% 6.0 mph SE9.7 kmh SE 12.0 mph19.3 kmh 29.93 in1013.5 mb 0.00 in0.0 mm 0.00 in0.0 mm 0.00 in0.0 mm
01:00 AM 71.9°F22.2°C -31.2°F-35.1°C 0% 5.0 mph SE8.0 kmh SE 12.0 mph19.3 kmh 29.93 in1013.5 mb 0.00 in0.0 mm 0.00 in0.0 mm 0.00 in0.0 mm
01:05 AM 71.8°F22.1°C -31.2°F-35.1°C 0% 5.0 mph SE8.0 kmh SE 9.0 mph14.5 kmh 29.92 in1013.2 mb 0.00 in0.0 mm 0.00 in0.0 mm 0.00 in0.0 mm
01:10 AM 71.8°F22.1°C -31.2°F-35.1°C 0% 4.0 mph SE6.4 kmh SE 8.0 mph12.9 kmh 29.92 in1013.2 mb 0.00 in0.0 mm 0.00 in0.0 mm 0.00 in0.0 mm
01:15 AM 71.8°F22.1°C -31.2°F-35.1°C 0% 3.0 mph SE4.8 kmh SE 7.0 mph11.3 kmh 29.92 in1013.2 mb 0.00 in0.0 mm 0.00 in0.0 mm 0.00 in0.0 mm
01:20 AM 71.7°F22.1°C -31.2°F-35.1°C 0% 3.0 mph SE4.8 kmh SE 7.0 mph11.3 kmh 29.92 in1013.2 mb 0.00 in0.0 mm 0.00 in0.0 mm 0.00 in0.0 mm
01:25 AM 71.7°F22.1°C -31.2°F-35.1°C 0% 4.0 mph SE6.4 kmh SE 7.0 mph11.3 kmh 29.91 in1012.9 mb 0.00 in0.0 mm 0.00 in0.0 mm 0.00 in0.0 mm
01:30 AM 71.7°F22.1°C -31.2°F-35.1°C 0% 3.0 mph SSE4.8 kmh SSE 7.0 mph11.3 kmh 29.91 in1012.9 mb 0.00 in0.0 mm 0.00 in0.0 mm 0.00 in0.0 mm
01:35 AM 71.6°F22.0°C -31.2°F-35.1°C 0% 3.0 mph SE4.8 kmh SE 5.0 mph8.0 kmh 29.91 in1012.9 mb 0.00 in0.0 mm 0.00 in0.0 mm 0.00 in0.0 mm
01:40 AM 71.5°F21.9°C -31.2°F-35.1°C 0% 3.0 mph SE4.8 kmh SE 6.0 mph9.7 kmh 29.91 in1012.9 mb 0.00 in0.0 mm 0.00 in0.0 mm 0.00 in0.0 mm
01:45 AM 71.5°F21.9°C -31.2°F-35.1°C 0% 3.0 mph SE4.8 kmh SE 6.0 mph9.7 kmh 29.91 in1012.9 mb 0.00 in0.0 mm 0.00 in0.0 mm 0.00 in0.0 mm
01:50 AM 71.5°F21.9°C -31.2°F-35.1°C 0% 3.0 mph SE4.8 kmh SE 5.0 mph8.0 kmh 29.91 in1012.9 mb 0.00 in0.0 mm 0.00 in0.0 mm 0.00 in0.0 mm
01:55 AM 71.4°F21.9°C -31.2°F-35.1°C 0% 3.0 mph SE4.8 kmh SE 6.0 mph9.7 kmh 29.91 in1012.9 mb 0.00 in0.0 mm 0.00 in0.0 mm 0.00 in0.0 mm
02:00 AM 71.4°F21.9°C -31.2°F-35.1°C 0% 3.0 mph SE4.8 kmh SE 6.0 mph9.7 kmh 29.91 in1012.9 mb 0.00 in0.0 mm 0.00 in0.0 mm 0.00 in0.0 mm
02:05 AM 71.4°F21.9°C -31.2°F-35.1°C 0% 3.0 mph SE4.8 kmh SE 5.0 mph8.0 kmh 29.91 in1012.9 mb 0.00 in0.0 mm 0.00 in0.0 mm 0.00 in0.0 mm
02:10 AM 71.3°F21.8°C -31.2°F-35.1°C 0% 2.0 mph SE3.2 kmh SE 5.0 mph8.0 kmh 29.91 in1012.9 mb 0.00 in0.0 mm 0.00 in0.0 mm 0.00 in0.0 mm
02:15 AM 71.3°F21.8°C -31.2°F-35.1°C 0% 2.0 mph SE3.2 kmh SE 4.0 mph6.4 kmh 29.91 in1012.9 mb 0.00 in0.0 mm 0.00 in0.0 mm 0.00 in0.0 mm
02:20 AM 71.2°F21.8°C -31.2°F-35.1°C 0% 2.0 mph SE3.2 kmh SE 4.0 mph6.4 kmh 29.91 in1012.9 mb 0.00 in0.0 mm 0.00 in0.0 mm 0.00 in0.0 mm
02:25 AM 71.2°F21.8°C -31.2°F-35.1°C 0% 2.0 mph SE3.2 kmh SE 5.0 mph8.0 kmh 29.91 in1012.9 mb 0.00 in0.0 mm 0.00 in0.0 mm 0.00 in0.0 mm
02:30 AM 71.2°F21.8°C -31.2°F-35.1°C 0% 2.0 mph SE3.2 kmh SE 5.0 mph8.0 kmh 29.91 in1012.9 mb 0.00 in0.0 mm 0.00 in0.0 mm 0.00 in0.0 mm
02:35 AM 71.2°F21.8°C -31.2°F-35.1°C 0% 2.0 mph SE3.2 kmh SE 6.0 mph9.7 kmh 29.91 in1012.9 mb 0.00 in0.0 mm 0.00 in0.0 mm 0.00 in0.0 mm
02:40 AM 71.2°F21.8°C -31.2°F-35.1°C 0% 2.0 mph SE3.2 kmh SE 7.0 mph11.3 kmh 29.91 in1012.9 mb 0.00 in0.0 mm 0.00 in0.0 mm 0.00 in0.0 mm
02:45 AM 71.2°F21.8°C -31.2°F-35.1°C 0% 3.0 mph SE4.8 kmh SE 7.0 mph11.3 kmh 29.91 in1012.9 mb 0.00 in0.0 mm 0.00 in0.0 mm 0.00 in0.0 mm
02:50 AM 71.2°F21.8°C -31.2°F-35.1°C 0% 3.0 mph SE4.8 kmh SE 7.0 mph11.3 kmh 29.91 in1012.9 mb 0.00 in0.0 mm 0.00 in0.0 mm 0.00 in0.0 mm
02:55 AM 71.1°F21.7°C -31.2°F-35.1°C 0% 3.0 mph SE4.8 kmh SE 7.0 mph11.3 kmh 29.90 in1012.5 mb 0.00 in0.0 mm 0.00 in0.0 mm 0.00 in0.0 mm
03:00 AM 71.1°F21.7°C -31.2°F-35.1°C 0% 3.0 mph SE4.8 kmh SE 7.0 mph11.3 kmh 29.90 in1012.5 mb 0.00 in0.0 mm 0.00 in0.0 mm 0.00 in0.0 mm
03:05 AM 71.1°F21.7°C -31.2°F-35.1°C 0% 3.0 mph SE4.8 kmh SE 7.0 mph11.3 kmh 29.90 in1012.5 mb 0.00 in0.0 mm 0.00 in0.0 mm 0.00 in0.0 mm
03:10 AM 71.0°F21.7°C -31.2°F-35.1°C 0% 3.0 mph SE4.8 kmh SE 7.0 mph11.3 kmh 29.90 in1012.5 mb 0.00 in0.0 mm 0.00 in0.0 mm 0.00 in0.0 mm
03:15 AM 71.0°F21.7°C -31.2°F-35.1°C 0% 3.0 mph SE4.8 kmh SE 7.0 mph11.3 kmh 29.90 in1012.5 mb 0.00 in0.0 mm 0.00 in0.0 mm 0.00 in0.0 mm
03:20 AM 71.0°F21.7°C -31.2°F-35.1°C 0% 3.0 mph SE4.8 kmh SE 7.0 mph11.3 kmh 29.90 in1012.5 mb 0.00 in0.0 mm 0.00 in0.0 mm 0.00 in0.0 mm
03:25 AM 70.9°F21.6°C -31.2°F-35.1°C 0% 3.0 mph SE4.8 kmh SE 7.0 mph11.3 kmh 29.89 in1012.2 mb 0.00 in0.0 mm 0.00 in0.0 mm 0.00 in0.0 mm
03:30 AM 70.9°F21.6°C -31.2°F-35.1°C 0% 3.0 mph SE4.8 kmh SE 7.0 mph11.3 kmh 29.89 in1012.2 mb 0.00 in0.0 mm 0.00 in0.0 mm 0.00 in0.0 mm
03:35 AM 70.9°F21.6°C -31.2°F-35.1°C 0% 2.0 mph SE3.2 kmh SE 5.0 mph8.0 kmh 29.89 in1012.2 mb 0.00 in0.0 mm 0.00 in0.0 mm 0.00 in0.0 mm
03:40 AM 70.9°F21.6°C -31.2°F-35.1°C 0% 2.0 mph SE3.2 kmh SE 6.0 mph9.7 kmh 29.90 in1012.5 mb 0.00 in0.0 mm 0.00 in0.0 mm 0.00 in0.0 mm
03:45 AM 70.9°F21.6°C -31.2°F-35.1°C 0% 3.0 mph SE4.8 kmh SE 6.0 mph9.7 kmh 29.90 in1012.5 mb 0.00 in0.0 mm 0.00 in0.0 mm 0.00 in0.0 mm
03:50 AM 70.9°F21.6°C -31.2°F-35.1°C 0% 2.0 mph SE3.2 kmh SE 5.0 mph8.0 kmh 29.90 in1012.5 mb 0.00 in0.0 mm 0.00 in0.0 mm 0.00 in0.0 mm
03:55 AM 70.8°F21.6°C -31.2°F-35.1°C 0% 2.0 mph SSE3.2 kmh SSE 4.0 mph6.4 kmh 29.90 in1012.5 mb 0.00 in0.0 mm 0.00 in0.0 mm 0.00 in0.0 mm
04:00 AM 70.8°F21.6°C -31.2°F-35.1°C 0% 2.0 mph SSE3.2 kmh SSE 3.0 mph4.8 kmh 29.90 in1012.5 mb 0.00 in0.0 mm 0.00 in0.0 mm 0.00 in0.0 mm
04:05 AM 70.7°F21.5°C -31.2°F-35.1°C 0% 2.0 mph SSE3.2 kmh SSE 3.0 mph4.8 kmh 29.90 in1012.5 mb 0.00 in0.0 mm 0.00 in0.0 mm 0.00 in0.0 mm
04:10 AM 70.7°F21.5°C -31.2°F-35.1°C 0% 2.0 mph SSE3.2 kmh SSE 3.0 mph4.8 kmh 29.90 in1012.5 mb 0.00 in0.0 mm 0.00 in0.0 mm 0.00 in0.0 mm
04:15 AM 70.6°F21.4°C -31.2°F-35.1°C 0% 2.0 mph SSE3.2 kmh SSE 3.0 mph4.8 kmh 29.90 in1012.5 mb 0.00 in0.0 mm 0.00 in0.0 mm 0.00 in0.0 mm
04:20 AM 70.6°F21.4°C -31.2°F-35.1°C 0% 2.0 mph SSE3.2 kmh SSE 4.0 mph6.4 kmh 29.90 in1012.5 mb 0.00 in0.0 mm 0.00 in0.0 mm 0.00 in0.0 mm
04:25 AM 70.6°F21.4°C -31.2°F-35.1°C 0% 2.0 mph SE3.2 kmh SE 4.0 mph6.4 kmh 29.89 in1012.2 mb 0.00 in0.0 mm 0.00 in0.0 mm 0.00 in0.0 mm
04:30 AM 70.6°F21.4°C -31.2°F-35.1°C 0% 2.0 mph SE3.2 kmh SE 4.0 mph6.4 kmh 29.89 in1012.2 mb 0.00 in0.0 mm 0.00 in0.0 mm 0.00 in0.0 mm
04:35 AM 70.6°F21.4°C -31.2°F-35.1°C 0% 2.0 mph SE3.2 kmh SE 4.0 mph6.4 kmh 29.89 in1012.2 mb 0.00 in0.0 mm 0.00 in0.0 mm 0.00 in0.0 mm
04:40 AM 70.6°F21.4°C -31.2°F-35.1°C 0% 2.0 mph SE3.2 kmh SE 4.0 mph6.4 kmh 29.89 in1012.2 mb 0.00 in0.0 mm 0.00 in0.0 mm 0.00 in0.0 mm
04:45 AM 70.6°F21.4°C -31.2°F-35.1°C 0% 2.0 mph SE3.2 kmh SE 4.0 mph6.4 kmh 29.90 in1012.5 mb 0.00 in0.0 mm 0.00 in0.0 mm 0.00 in0.0 mm
04:50 AM 70.6°F21.4°C -31.2°F-35.1°C 0% 2.0 mph SE3.2 kmh SE 4.0 mph6.4 kmh 29.90 in1012.5 mb 0.00 in0.0 mm 0.00 in0.0 mm 0.00 in0.0 mm
04:55 AM 70.7°F21.5°C -31.2°F-35.1°C 0% 2.0 mph SE3.2 kmh SE 5.0 mph8.0 kmh 29.90 in1012.5 mb 0.00 in0.0 mm 0.00 in0.0 mm 0.00 in0.0 mm
05:00 AM 70.7°F21.5°C -31.2°F-35.1°C 0% 3.0 mph SE4.8 kmh SE 5.0 mph8.0 kmh 29.90 in1012.5 mb 0.00 in0.0 mm 0.00 in0.0 mm 0.00 in0.0 mm
05:05 AM 70.7°F21.5°C -31.2°F-35.1°C 0% 2.0 mph SE3.2 kmh SE 4.0 mph6.4 kmh 29.90 in1012.5 mb 0.00 in0.0 mm 0.00 in0.0 mm 0.00 in0.0 mm
05:10 AM 70.7°F21.5°C -31.2°F-35.1°C 0% 2.0 mph SE3.2 kmh SE 4.0 mph6.4 kmh 29.90 in1012.5 mb 0.00 in0.0 mm 0.00 in0.0 mm 0.00 in0.0 mm
05:15 AM 70.6°F21.4°C -31.2°F-35.1°C 0% 2.0 mph SE3.2 kmh SE 6.0 mph9.7 kmh 29.90 in1012.5 mb 0.00 in0.0 mm 0.00 in0.0 mm 0.00 in0.0 mm
05:20 AM 70.7°F21.5°C -31.2°F-35.1°C 0% 2.0 mph SE3.2 kmh SE 6.0 mph9.7 kmh 29.91 in1012.9 mb 0.00 in0.0 mm 0.00 in0.0 mm 0.00 in0.0 mm
05:25 AM 70.7°F21.5°C -31.2°F-35.1°C 0% 2.0 mph SE3.2 kmh SE 4.0 mph6.4 kmh 29.91 in1012.9 mb 0.00 in0.0 mm 0.00 in0.0 mm 0.00 in0.0 mm
05:30 AM 70.7°F21.5°C -31.2°F-35.1°C 0% 2.0 mph SE3.2 kmh SE 4.0 mph6.4 kmh 29.90 in1012.5 mb 0.00 in0.0 mm 0.00 in0.0 mm 0.00 in0.0 mm
05:35 AM 70.7°F21.5°C -31.2°F-35.1°C 0% 2.0 mph SE3.2 kmh SE 5.0 mph8.0 kmh 29.91 in1012.9 mb 0.00 in0.0 mm 0.00 in0.0 mm 0.00 in0.0 mm
05:40 AM 70.7°F21.5°C -31.2°F-35.1°C 0% 2.0 mph SE3.2 kmh SE 5.0 mph8.0 kmh 29.90 in1012.5 mb 0.00 in0.0 mm 0.00 in0.0 mm 0.00 in0.0 mm
05:45 AM 70.7°F21.5°C -31.2°F-35.1°C 0% 2.0 mph SE3.2 kmh SE 5.0 mph8.0 kmh 29.90 in1012.5 mb 0.00 in0.0 mm 0.00 in0.0 mm 0.00 in0.0 mm
05:50 AM 70.7°F21.5°C -31.2°F-35.1°C 0% 2.0 mph SE3.2 kmh SE 5.0 mph8.0 kmh 29.91 in1012.9 mb 0.00 in0.0 mm 0.00 in0.0 mm 0.00 in0.0 mm
05:55 AM 70.7°F21.5°C -31.2°F-35.1°C 0% 3.0 mph SE4.8 kmh SE 5.0 mph8.0 kmh 29.90 in1012.5 mb 0.00 in0.0 mm 0.00 in0.0 mm 0.00 in0.0 mm
06:00 AM 70.8°F21.6°C -31.2°F-35.1°C 0% 3.0 mph SSE4.8 kmh SSE 7.0 mph11.3 kmh 29.91 in1012.9 mb 0.00 in0.0 mm 0.00 in0.0 mm 0.00 in0.0 mm
06:05 AM 70.8°F21.6°C -31.2°F-35.1°C 0% 3.0 mph SE4.8 kmh SE 7.0 mph11.3 kmh 29.91 in1012.9 mb 0.00 in0.0 mm 0.00 in0.0 mm 0.00 in0.0 mm
06:10 AM 70.9°F21.6°C -31.2°F-35.1°C 0% 3.0 mph SE4.8 kmh SE 6.0 mph9.7 kmh 29.91 in1012.9 mb 0.00 in0.0 mm 0.00 in0.0 mm 0.00 in0.0 mm
06:15 AM 70.9°F21.6°C -31.2°F-35.1°C 0% 3.0 mph SE4.8 kmh SE 7.0 mph11.3 kmh 29.91 in1012.9 mb 0.00 in0.0 mm 0.00 in0.0 mm 0.00 in0.0 mm
06:20 AM 70.9°F21.6°C -31.2°F-35.1°C 0% 3.0 mph SE4.8 kmh SE 7.0 mph11.3 kmh 29.91 in1012.9 mb 0.00 in0.0 mm 0.00 in0.0 mm 0.00 in0.0 mm
06:25 AM 70.9°F21.6°C -31.2°F-35.1°C 0% 3.0 mph SE4.8 kmh SE 6.0 mph9.7 kmh 29.91 in1012.9 mb 0.00 in0.0 mm 0.00 in0.0 mm 0.00 in0.0 mm
06:30 AM 70.9°F21.6°C -31.2°F-35.1°C 0% 3.0 mph SE4.8 kmh SE 6.0 mph9.7 kmh 29.91 in1012.9 mb 0.00 in0.0 mm 0.00 in0.0 mm 0.00 in0.0 mm
06:35 AM 70.9°F21.6°C -31.2°F-35.1°C 0% 3.0 mph SE4.8 kmh SE 6.0 mph9.7 kmh 29.91 in1012.9 mb 0.01 in0.3 mm 0.12 in3.0 mm 0.01 in0.3 mm
06:40 AM 70.9°F21.6°C -31.2°F-35.1°C 0% 3.0 mph SSE4.8 kmh SSE 5.0 mph8.0 kmh 29.92 in1013.2 mb 0.01 in0.3 mm 0.00 in0.0 mm 0.01 in0.3 mm
06:45 AM 70.9°F21.6°C -31.2°F-35.1°C 0% 3.0 mph SE4.8 kmh SE 6.0 mph9.7 kmh 29.91 in1012.9 mb 0.01 in0.3 mm 0.00 in0.0 mm 0.01 in0.3 mm
06:50 AM 70.9°F21.6°C -31.2°F-35.1°C 0% 3.0 mph SE4.8 kmh SE 6.0 mph9.7 kmh 29.92 in1013.2 mb 0.01 in0.3 mm 0.00 in0.0 mm 0.01 in0.3 mm
06:55 AM 70.9°F21.6°C -31.2°F-35.1°C 0% 3.0 mph SE4.8 kmh SE 6.0 mph9.7 kmh 29.92 in1013.2 mb 0.01 in0.3 mm 0.00 in0.0 mm 0.01 in0.3 mm
07:00 AM 70.9°F21.6°C -31.2°F-35.1°C 0% 3.0 mph SE4.8 kmh SE 6.0 mph9.7 kmh 29.92 in1013.2 mb 0.01 in0.3 mm 0.00 in0.0 mm 0.01 in0.3 mm
07:05 AM 71.0°F21.7°C -31.2°F-35.1°C 0% 3.0 mph SE4.8 kmh SE 6.0 mph9.7 kmh 29.92 in1013.2 mb 0.01 in0.3 mm 0.00 in0.0 mm 0.01 in0.3 mm
07:10 AM 71.0°F21.7°C -31.2°F-35.1°C 0% 3.0 mph SE4.8 kmh SE 5.0 mph8.0 kmh 29.93 in1013.5 mb 0.01 in0.3 mm 0.00 in0.0 mm 0.01 in0.3 mm
07:15 AM 71.0°F21.7°C -31.2°F-35.1°C 0% 3.0 mph SE4.8 kmh SE 5.0 mph8.0 kmh 29.93 in1013.5 mb 0.01 in0.3 mm 0.00 in0.0 mm 0.01 in0.3 mm
07:20 AM 71.0°F21.7°C -31.2°F-35.1°C 0% 3.0 mph SE4.8 kmh SE 6.0 mph9.7 kmh 29.93 in1013.5 mb 0.01 in0.3 mm 0.00 in0.0 mm 0.01 in0.3 mm
07:25 AM 71.1°F21.7°C -31.2°F-35.1°C 0% 3.0 mph SE4.8 kmh SE 7.0 mph11.3 kmh 29.93 in1013.5 mb 0.01 in0.3 mm 0.00 in0.0 mm 0.01 in0.3 mm
07:30 AM 71.2°F21.8°C -31.2°F-35.1°C 0% 3.0 mph SE4.8 kmh SE 7.0 mph11.3 kmh 29.93 in1013.5 mb 0.00 in0.0 mm 0.00 in0.0 mm 0.01 in0.3 mm
07:35 AM 71.3°F21.8°C -31.2°F-35.1°C 0% 3.0 mph SE4.8 kmh SE 6.0 mph9.7 kmh 29.93 in1013.5 mb 0.00 in0.0 mm 0.00 in0.0 mm 0.01 in0.3 mm
07:40 AM 71.4°F21.9°C -31.2°F-35.1°C 0% 3.0 mph SE4.8 kmh SE 6.0 mph9.7 kmh 29.94 in1013.9 mb 0.00 in0.0 mm 0.00 in0.0 mm 0.01 in0.3 mm
07:45 AM 71.5°F21.9°C -31.2°F-35.1°C 0% 3.0 mph SE4.8 kmh SE 5.0 mph8.0 kmh 29.94 in1013.9 mb 0.00 in0.0 mm 0.00 in0.0 mm 0.01 in0.3 mm
07:50 AM 71.6°F22.0°C -31.2°F-35.1°C 0% 3.0 mph SE4.8 kmh SE 5.0 mph8.0 kmh 29.93 in1013.5 mb 0.00 in0.0 mm 0.00 in0.0 mm 0.01 in0.3 mm
07:55 AM 71.7°F22.1°C -31.2°F-35.1°C 0% 2.0 mph SE3.2 kmh SE 5.0 mph8.0 kmh 29.94 in1013.9 mb 0.00 in0.0 mm 0.00 in0.0 mm 0.01 in0.3 mm
08:00 AM 71.7°F22.1°C -31.2°F-35.1°C 0% 4.0 mph SE6.4 kmh SE 8.0 mph12.9 kmh 29.94 in1013.9 mb 0.00 in0.0 mm 0.00 in0.0 mm 0.01 in0.3 mm
08:05 AM 71.8°F22.1°C -31.2°F-35.1°C 0% 4.0 mph SE6.4 kmh SE 8.0 mph12.9 kmh 29.94 in1013.9 mb 0.00 in0.0 mm 0.00 in0.0 mm 0.01 in0.3 mm
08:10 AM 72.0°F22.2°C -31.2°F-35.1°C 0% 4.0 mph SE6.4 kmh SE 7.0 mph11.3 kmh 29.95 in1014.2 mb 0.00 in0.0 mm 0.00 in0.0 mm 0.01 in0.3 mm
08:15 AM 72.2°F22.3°C -31.2°F-35.1°C 0% 4.0 mph SE6.4 kmh SE 7.0 mph11.3 kmh 29.95 in1014.2 mb 0.00 in0.0 mm 0.00 in0.0 mm 0.01 in0.3 mm
08:20 AM 72.5°F22.5°C -31.2°F-35.1°C 0% 4.0 mph SE6.4 kmh SE 9.0 mph14.5 kmh 29.95 in1014.2 mb 0.00 in0.0 mm 0.00 in0.0 mm 0.01 in0.3 mm
08:25 AM 72.6°F22.6°C -31.2°F-35.1°C 0% 5.0 mph SE8.0 kmh SE 11.0 mph17.7 kmh 29.95 in1014.2 mb 0.00 in0.0 mm 0.00 in0.0 mm 0.01 in0.3 mm
08:30 AM 72.7°F22.6°C -31.2°F-35.1°C 0% 6.0 mph SE9.7 kmh SE 11.0 mph17.7 kmh 29.95 in1014.2 mb 0.00 in0.0 mm 0.00 in0.0 mm 0.01 in0.3 mm
08:35 AM 72.8°F22.7°C -31.2°F-35.1°C 0% 6.0 mph SE9.7 kmh SE 11.0 mph17.7 kmh 29.95 in1014.2 mb 0.00 in0.0 mm 0.00 in0.0 mm 0.01 in0.3 mm
08:40 AM 73.1°F22.8°C -31.2°F-35.1°C 0% 5.0 mph SE8.0 kmh SE 11.0 mph17.7 kmh 29.96 in1014.6 mb 0.00 in0.0 mm 0.00 in0.0 mm 0.01 in0.3 mm
08:45 AM 73.4°F23.0°C -31.2°F-35.1°C 0% 5.0 mph SSE8.0 kmh SSE 11.0 mph17.7 kmh 29.95 in1014.2 mb 0.00 in0.0 mm 0.00 in0.0 mm 0.01 in0.3 mm
08:50 AM 73.8°F23.2°C -31.2°F-35.1°C 0% 6.0 mph SE9.7 kmh SE 11.0 mph17.7 kmh 29.95 in1014.2 mb 0.00 in0.0 mm 0.00 in0.0 mm 0.01 in0.3 mm
08:55 AM 74.1°F23.4°C -31.2°F-35.1°C 0% 5.0 mph SE8.0 kmh SE 12.0 mph19.3 kmh 29.95 in1014.2 mb 0.00 in0.0 mm 0.00 in0.0 mm 0.01 in0.3 mm
09:00 AM 74.4°F23.6°C -31.2°F-35.1°C 0% 5.0 mph SE8.0 kmh SE 12.0 mph19.3 kmh 29.95 in1014.2 mb 0.00 in0.0 mm 0.00 in0.0 mm 0.01 in0.3 mm
09:05 AM 74.7°F23.7°C -31.2°F-35.1°C 0% 5.0 mph SE8.0 kmh SE 10.0 mph16.1 kmh 29.95 in1014.2 mb 0.00 in0.0 mm 0.00 in0.0 mm 0.01 in0.3 mm
09:10 AM 75.1°F23.9°C -31.2°F-35.1°C 0% 5.0 mph SE8.0 kmh SE 10.0 mph16.1 kmh 29.95 in1014.2 mb 0.00 in0.0 mm 0.00 in0.0 mm 0.01 in0.3 mm
09:15 AM 75.7°F24.3°C -31.2°F-35.1°C 0% 5.0 mph SE8.0 kmh SE 10.0 mph16.1 kmh 29.96 in1014.6 mb 0.00 in0.0 mm 0.00 in0.0 mm 0.01 in0.3 mm
09:20 AM 76.3°F24.6°C -31.2°F-35.1°C 0% 5.0 mph SSE8.0 kmh SSE 10.0 mph16.1 kmh 29.96 in1014.6 mb 0.00 in0.0 mm 0.00 in0.0 mm 0.01 in0.3 mm
09:25 AM 76.7°F24.8°C -31.2°F-35.1°C 0% 6.0 mph SE9.7 kmh SE 12.0 mph19.3 kmh 29.96 in1014.6 mb 0.00 in0.0 mm 0.00 in0.0 mm 0.01 in0.3 mm
09:30 AM 77.3°F25.2°C -31.2°F-35.1°C 0% 6.0 mph SSE9.7 kmh SSE 12.0 mph19.3 kmh 29.96 in1014.6 mb 0.00 in0.0 mm 0.00 in0.0 mm 0.01 in0.3 mm
09:35 AM 77.8°F25.4°C -31.2°F-35.1°C 0% 5.0 mph SSE8.0 kmh SSE 10.0 mph16.1 kmh 29.96 in1014.6 mb 0.00 in0.0 mm 0.00 in0.0 mm 0.01 in0.3 mm
09:40 AM 78.2°F25.7°C -31.2°F-35.1°C 0% 5.0 mph SSE8.0 kmh SSE 9.0 mph14.5 kmh 29.96 in1014.6 mb 0.00 in0.0 mm 0.00 in0.0 mm 0.01 in0.3 mm
09:45 AM 78.6°F25.9°C -16.9°F-27.2°C 2% 5.0 mph S8.0 kmh S 9.0 mph14.5 kmh 29.96 in1014.6 mb 0.00 in0.0 mm 0.00 in0.0 mm 0.01 in0.3 mm
09:50 AM 78.9°F26.1°C -29.8°F-34.3°C 1% 5.0 mph SSE8.0 kmh SSE 9.0 mph14.5 kmh 29.96 in1014.6 mb 0.00 in0.0 mm 0.00 in0.0 mm 0.01 in0.3 mm
09:55 AM 79.3°F26.3°C 15.5°F-9.2°C 9% 5.0 mph SSE8.0 kmh SSE 9.0 mph14.5 kmh 29.97 in1014.9 mb 0.00 in0.0 mm 0.00 in0.0 mm 0.01 in0.3 mm
10:00 AM 79.7°F26.5°C 27.9°F-2.3°C 15% 5.0 mph SE8.0 kmh SE 9.0 mph14.5 kmh 29.97 in1014.9 mb 0.00 in0.0 mm 0.00 in0.0 mm 0.01 in0.3 mm
10:05 AM 80.0°F26.7°C 28.2°F-2.1°C 15% 6.0 mph SSE9.7 kmh SSE 10.0 mph16.1 kmh 29.97 in1014.9 mb 0.00 in0.0 mm 0.00 in0.0 mm 0.01 in0.3 mm
10:10 AM 80.5°F26.9°C 31.7°F-0.2°C 17% 6.0 mph SSE9.7 kmh SSE 11.0 mph17.7 kmh 29.97 in1014.9 mb 0.00 in0.0 mm 0.00 in0.0 mm 0.01 in0.3 mm
10:15 AM 81.1°F27.3°C 43.0°F6.1°C 26% 5.0 mph SSE8.0 kmh SSE 11.0 mph17.7 kmh 29.97 in1014.9 mb 0.00 in0.0 mm 0.00 in0.0 mm 0.01 in0.3 mm
10:20 AM 81.4°F27.4°C 45.2°F7.3°C 28% 5.0 mph S8.0 kmh S 10.0 mph16.1 kmh 29.97 in1014.9 mb 0.00 in0.0 mm 0.00 in0.0 mm 0.01 in0.3 mm
10:25 AM 81.6°F27.6°C 48.9°F9.4°C 32% 5.0 mph SSE8.0 kmh SSE 10.0 mph16.1 kmh 29.97 in1014.9 mb 0.00 in0.0 mm 0.00 in0.0 mm 0.01 in0.3 mm
10:30 AM 81.7°F27.6°C 50.6°F10.3°C 34% 5.0 mph S8.0 kmh S 14.0 mph22.5 kmh 29.97 in1014.9 mb 0.00 in0.0 mm 0.00 in0.0 mm 0.01 in0.3 mm
10:35 AM 81.7°F27.6°C 48.1°F8.9°C 31% 5.0 mph S8.0 kmh S 14.0 mph22.5 kmh 29.98 in1015.2 mb 0.00 in0.0 mm 0.00 in0.0 mm 0.01 in0.3 mm
10:40 AM 81.9°F27.7°C 47.4°F8.6°C 30% 5.0 mph SSE8.0 kmh SSE 10.0 mph16.1 kmh 29.98 in1015.2 mb 0.00 in0.0 mm 0.00 in0.0 mm 0.01 in0.3 mm
10:45 AM 82.1°F27.8°C 52.5°F11.4°C 36% 6.0 mph SE9.7 kmh SE 10.0 mph16.1 kmh 29.98 in1015.2 mb 0.00 in0.0 mm 0.00 in0.0 mm 0.01 in0.3 mm
10:50 AM 81.9°F27.7°C 53.1°F11.7°C 37% 5.0 mph SSE8.0 kmh SSE 10.0 mph16.1 kmh 29.98 in1015.2 mb 0.00 in0.0 mm 0.00 in0.0 mm 0.01 in0.3 mm
10:55 AM 81.4°F27.4°C 52.6°F11.4°C 37% 5.0 mph S8.0 kmh S 9.0 mph14.5 kmh 29.98 in1015.2 mb 0.00 in0.0 mm 0.00 in0.0 mm 0.01 in0.3 mm
11:00 AM 81.1°F27.3°C 48.4°F9.1°C 32% 4.0 mph S6.4 kmh S 8.0 mph12.9 kmh 29.98 in1015.2 mb 0.00 in0.0 mm 0.00 in0.0 mm 0.01 in0.3 mm
11:05 AM 80.7°F27.1°C 48.1°F8.9°C 32% 4.0 mph S6.4 kmh S 11.0 mph17.7 kmh 29.98 in1015.2 mb 0.00 in0.0 mm 0.00 in0.0 mm 0.01 in0.3 mm
11:10 AM 80.5°F26.9°C 47.9°F8.8°C 32% 4.0 mph SSE6.4 kmh SSE 11.0 mph17.7 kmh 29.98 in1015.2 mb 0.00 in0.0 mm 0.00 in0.0 mm 0.01 in0.3 mm
11:15 AM 80.3°F26.8°C 45.1°F7.3°C 29% 5.0 mph SSE8.0 kmh SSE 10.0 mph16.1 kmh 29.98 in1015.2 mb 0.00 in0.0 mm 0.00 in0.0 mm 0.01 in0.3 mm
11:20 AM 80.5°F26.9°C 45.3°F7.4°C 29% 6.0 mph SSE9.7 kmh SSE 10.0 mph16.1 kmh 29.98 in1015.2 mb 0.00 in0.0 mm 0.00 in0.0 mm 0.01 in0.3 mm
11:25 AM 80.7°F27.1°C 49.7°F9.8°C 34% 6.0 mph SSE9.7 kmh SSE 10.0 mph16.1 kmh 29.98 in1015.2 mb 0.00 in0.0 mm 0.00 in0.0 mm 0.01 in0.3 mm
11:30 AM 80.7°F27.1°C 48.9°F9.4°C 33% 6.0 mph SSE9.7 kmh SSE 10.0 mph16.1 kmh 29.98 in1015.2 mb 0.00 in0.0 mm 0.00 in0.0 mm 0.01 in0.3 mm
11:35 AM 81.5°F27.5°C 36.5°F2.5°C 20% 5.0 mph SSE8.0 kmh SSE 8.0 mph12.9 kmh 29.98 in1015.2 mb 0.00 in0.0 mm 0.00 in0.0 mm 0.01 in0.3 mm
11:40 AM 82.4°F28.0°C 57.7°F14.3°C 43% 5.0 mph SE8.0 kmh SE 9.0 mph14.5 kmh 29.98 in1015.2 mb 0.00 in0.0 mm 0.00 in0.0 mm 0.01 in0.3 mm
11:45 AM 82.4°F28.0°C 60.7°F15.9°C 48% 6.0 mph SE9.7 kmh SE 12.0 mph19.3 kmh 29.97 in1014.9 mb 0.00 in0.0 mm 0.00 in0.0 mm 0.01 in0.3 mm
11:50 AM 83.2°F28.4°C 62.1°F16.7°C 49% 7.0 mph SSE11.3 kmh SSE 12.0 mph19.3 kmh 29.97 in1014.9 mb 0.00 in0.0 mm 0.00 in0.0 mm 0.01 in0.3 mm
11:55 AM 84.3°F29.1°C 64.8°F18.2°C 52% 7.0 mph SE11.3 kmh SE 12.0 mph19.3 kmh 29.97 in1014.9 mb 0.00 in0.0 mm 0.00 in0.0 mm 0.01 in0.3 mm
12:00 PM 85.1°F29.5°C 68.7°F20.4°C 58% 7.0 mph SE11.3 kmh SE 15.0 mph24.1 kmh 29.97 in1014.9 mb 0.00 in0.0 mm 0.00 in0.0 mm 0.01 in0.3 mm
12:05 PM 85.3°F29.6°C 70.3°F21.3°C 61% 7.0 mph SSE11.3 kmh SSE 15.0 mph24.1 kmh 29.97 in1014.9 mb 0.00 in0.0 mm 0.00 in0.0 mm 0.01 in0.3 mm
12:10 PM 85.4°F29.7°C 69.4°F20.8°C 59% 7.0 mph SSE11.3 kmh SSE 15.0 mph24.1 kmh 29.96 in1014.6 mb 0.00 in0.0 mm 0.00 in0.0 mm 0.01 in0.3 mm
12:15 PM 86.0°F30.0°C 70.5°F21.4°C 60% 6.0 mph S9.7 kmh S 11.0 mph17.7 kmh 29.96 in1014.6 mb 0.00 in0.0 mm 0.00 in0.0 mm 0.01 in0.3 mm
12:20 PM 86.2°F30.1°C 71.6°F22.0°C 62% 6.0 mph S9.7 kmh S 10.0 mph16.1 kmh 29.96 in1014.6 mb 0.00 in0.0 mm 0.00 in0.0 mm 0.01 in0.3 mm
12:25 PM 86.3°F30.2°C 70.8°F21.6°C 60% 6.0 mph S9.7 kmh S 12.0 mph19.3 kmh 29.95 in1014.2 mb 0.00 in0.0 mm 0.00 in0.0 mm 0.01 in0.3 mm
12:30 PM 86.4°F30.2°C 71.8°F22.1°C 62% 6.0 mph S9.7 kmh S 12.0 mph19.3 kmh 29.95 in1014.2 mb 0.00 in0.0 mm 0.00 in0.0 mm 0.01 in0.3 mm
12:35 PM 86.4°F30.2°C 71.8°F22.1°C 62% 8.0 mph SSE12.9 kmh SSE 16.0 mph25.7 kmh 29.95 in1014.2 mb 0.00 in0.0 mm 0.00 in0.0 mm 0.01 in0.3 mm
12:40 PM 86.5°F30.3°C 71.9°F22.2°C 62% 8.0 mph SSE12.9 kmh SSE 16.0 mph25.7 kmh 29.95 in1014.2 mb 0.00 in0.0 mm 0.00 in0.0 mm 0.01 in0.3 mm
12:45 PM 86.2°F30.1°C 72.1°F22.3°C 63% 7.0 mph SSE11.3 kmh SSE 14.0 mph22.5 kmh 29.95 in1014.2 mb 0.00 in0.0 mm 0.00 in0.0 mm 0.01 in0.3 mm
12:50 PM 86.0°F30.0°C 71.5°F21.9°C 62% 7.0 mph SSE11.3 kmh SSE 14.0 mph22.5 kmh 29.95 in1014.2 mb 0.00 in0.0 mm 0.00 in0.0 mm 0.01 in0.3 mm
12:55 PM 86.0°F30.0°C 70.5°F21.4°C 60% 7.0 mph S11.3 kmh S 11.0 mph17.7 kmh 29.95 in1014.2 mb 0.00 in0.0 mm 0.00 in0.0 mm 0.01 in0.3 mm
01:00 PM 86.3°F30.2°C 72.2°F22.3°C 63% 7.0 mph S11.3 kmh S 14.0 mph22.5 kmh 29.95 in1014.2 mb 0.00 in0.0 mm 0.00 in0.0 mm 0.01 in0.3 mm
01:05 PM 86.1°F30.1°C 71.6°F22.0°C 62% 6.0 mph SSE9.7 kmh SSE 14.0 mph22.5 kmh 29.94 in1013.9 mb 0.00 in0.0 mm 0.00 in0.0 mm 0.01 in0.3 mm
01:10 PM 86.4°F30.2°C 71.4°F21.9°C 61% 5.0 mph SSE8.0 kmh SSE 12.0 mph19.3 kmh 29.94 in1013.9 mb 0.00 in0.0 mm 0.00 in0.0 mm 0.01 in0.3 mm
01:15 PM 87.0°F30.6°C 72.4°F22.4°C 62% 5.0 mph SSE8.0 kmh SSE 11.0 mph17.7 kmh 29.94 in1013.9 mb 0.00 in0.0 mm 0.00 in0.0 mm 0.01 in0.3 mm
01:20 PM 87.4°F30.8°C 72.3°F22.4°C 61% 6.0 mph SSE9.7 kmh SSE 13.0 mph20.9 kmh 29.93 in1013.5 mb 0.00 in0.0 mm 0.00 in0.0 mm 0.01 in0.3 mm
01:25 PM 87.8°F31.0°C 73.6°F23.1°C 63% 7.0 mph SE11.3 kmh SE 13.0 mph20.9 kmh 29.93 in1013.5 mb 0.00 in0.0 mm 0.00 in0.0 mm 0.01 in0.3 mm
01:30 PM 88.3°F31.3°C 74.1°F23.4°C 63% 8.0 mph SE12.9 kmh SE 13.0 mph20.9 kmh 29.93 in1013.5 mb 0.00 in0.0 mm 0.00 in0.0 mm 0.01 in0.3 mm
01:35 PM 88.8°F31.6°C 74.1°F23.4°C 62% 7.0 mph SE11.3 kmh SE 14.0 mph22.5 kmh 29.93 in1013.5 mb 0.00 in0.0 mm 0.00 in0.0 mm 0.01 in0.3 mm
01:40 PM 89.2°F31.8°C 74.5°F23.6°C 62% 7.0 mph SE11.3 kmh SE 14.0 mph22.5 kmh 29.92 in1013.2 mb 0.00 in0.0 mm 0.00 in0.0 mm 0.01 in0.3 mm
01:45 PM 89.1°F31.7°C 74.4°F23.6°C 62% 7.0 mph SE11.3 kmh SE 12.0 mph19.3 kmh 29.93 in1013.5 mb 0.00 in0.0 mm 0.00 in0.0 mm 0.01 in0.3 mm
01:50 PM 89.0°F31.7°C 74.3°F23.5°C 62% 7.0 mph SE11.3 kmh SE 14.0 mph22.5 kmh 29.93 in1013.5 mb 0.00 in0.0 mm 0.00 in0.0 mm 0.01 in0.3 mm
01:55 PM 88.3°F31.3°C 73.6°F23.1°C 62% 8.0 mph SE12.9 kmh SE 14.0 mph22.5 kmh 29.92 in1013.2 mb 0.00 in0.0 mm 0.00 in0.0 mm 0.01 in0.3 mm
02:00 PM 88.6°F31.4°C 73.9°F23.3°C 62% 8.0 mph SSE12.9 kmh SSE 16.0 mph25.7 kmh 29.91 in1012.9 mb 0.00 in0.0 mm 0.00 in0.0 mm 0.01 in0.3 mm
02:05 PM 88.4°F31.3°C 74.2°F23.4°C 63% 9.0 mph SSE14.5 kmh SSE 16.0 mph25.7 kmh 29.92 in1013.2 mb 0.00 in0.0 mm 0.00 in0.0 mm 0.01 in0.3 mm
02:10 PM 88.4°F31.3°C 73.7°F23.2°C 62% 9.0 mph SSE14.5 kmh SSE 17.0 mph27.4 kmh 29.92 in1013.2 mb 0.00 in0.0 mm 0.00 in0.0 mm 0.01 in0.3 mm
02:15 PM 88.3°F31.3°C 73.1°F22.8°C 61% 10.0 mph SSE16.1 kmh SSE 17.0 mph27.4 kmh 29.91 in1012.9 mb 0.00 in0.0 mm 0.00 in0.0 mm 0.01 in0.3 mm
02:20 PM 88.8°F31.6°C 74.1°F23.4°C 62% 8.0 mph SSE12.9 kmh SSE 14.0 mph22.5 kmh 29.91 in1012.9 mb 0.00 in0.0 mm 0.00 in0.0 mm 0.01 in0.3 mm
02:25 PM 89.3°F31.8°C 74.6°F23.7°C 62% 7.0 mph SSE11.3 kmh SSE 12.0 mph19.3 kmh 29.91 in1012.9 mb 0.00 in0.0 mm 0.00 in0.0 mm 0.01 in0.3 mm
02:30 PM 89.9°F32.2°C 75.1°F23.9°C 62% 8.0 mph SSE12.9 kmh SSE 16.0 mph25.7 kmh 29.91 in1012.9 mb 0.00 in0.0 mm 0.00 in0.0 mm 0.01 in0.3 mm
02:35 PM 90.4°F32.4°C 75.1°F23.9°C 61% 7.0 mph S11.3 kmh S 16.0 mph25.7 kmh 29.91 in1012.9 mb 0.00 in0.0 mm 0.00 in0.0 mm 0.01 in0.3 mm
02:40 PM 90.8°F32.7°C 75.0°F23.9°C 60% 7.0 mph S11.3 kmh S 17.0 mph27.4 kmh 29.91 in1012.9 mb 0.00 in0.0 mm 0.00 in0.0 mm 0.01 in0.3 mm
02:45 PM 90.0°F32.2°C 74.7°F23.7°C 61% 7.0 mph SSE11.3 kmh SSE 17.0 mph27.4 kmh 29.91 in1012.9 mb 0.00 in0.0 mm 0.00 in0.0 mm 0.01 in0.3 mm
02:50 PM 88.7°F31.5°C 73.5°F23.1°C 61% 8.0 mph SSE12.9 kmh SSE 14.0 mph22.5 kmh 29.91 in1012.9 mb 0.00 in0.0 mm 0.00 in0.0 mm 0.01 in0.3 mm
02:55 PM 87.9°F31.1°C 73.3°F22.9°C 62% 7.0 mph SSE11.3 kmh SSE 13.0 mph20.9 kmh 29.91 in1012.9 mb 0.00 in0.0 mm 0.00 in0.0 mm 0.01 in0.3 mm
03:00 PM 87.2°F30.7°C 73.1°F22.8°C 63% 6.0 mph SE9.7 kmh SE 13.0 mph20.9 kmh 29.90 in1012.5 mb 0.00 in0.0 mm 0.00 in0.0 mm 0.01 in0.3 mm
03:05 PM 86.3°F30.2°C 72.2°F22.3°C 63% 5.0 mph SSE8.0 kmh SSE 11.0 mph17.7 kmh 29.90 in1012.5 mb 0.00 in0.0 mm 0.00 in0.0 mm 0.01 in0.3 mm
03:10 PM 85.6°F29.8°C 71.6°F22.0°C 63% 5.0 mph SSE8.0 kmh SSE 9.0 mph14.5 kmh 29.89 in1012.2 mb 0.00 in0.0 mm 0.00 in0.0 mm 0.01 in0.3 mm
03:15 PM 85.0°F29.4°C 71.0°F21.7°C 63% 6.0 mph SSE9.7 kmh SSE 12.0 mph19.3 kmh 29.89 in1012.2 mb 0.00 in0.0 mm 0.00 in0.0 mm 0.01 in0.3 mm
03:20 PM 84.5°F29.2°C 70.0°F21.1°C 62% 5.0 mph SE8.0 kmh SE 12.0 mph19.3 kmh 29.90 in1012.5 mb 0.00 in0.0 mm 0.00 in0.0 mm 0.01 in0.3 mm
03:25 PM 83.9°F28.8°C 69.0°F20.6°C 61% 5.0 mph SE8.0 kmh SE 10.0 mph16.1 kmh 29.90 in1012.5 mb 0.00 in0.0 mm 0.00 in0.0 mm 0.01 in0.3 mm
03:30 PM 83.5°F28.6°C 68.6°F20.3°C 61% 5.0 mph SE8.0 kmh SE 10.0 mph16.1 kmh 29.90 in1012.5 mb 0.00 in0.0 mm 0.00 in0.0 mm 0.01 in0.3 mm
03:35 PM 83.4°F28.6°C 68.1°F20.1°C 60% 4.0 mph SE6.4 kmh SE 7.0 mph11.3 kmh 29.91 in1012.9 mb 0.00 in0.0 mm 0.00 in0.0 mm 0.01 in0.3 mm
03:40 PM 83.2°F28.4°C 68.3°F20.2°C 61% 3.0 mph SE4.8 kmh SE 8.0 mph12.9 kmh 29.91 in1012.9 mb 0.00 in0.0 mm 0.00 in0.0 mm 0.01 in0.3 mm
03:45 PM 83.2°F28.4°C 67.4°F19.7°C 59% 3.0 mph SSE4.8 kmh SSE 8.0 mph12.9 kmh 29.91 in1012.9 mb 0.00 in0.0 mm 0.00 in0.0 mm 0.01 in0.3 mm
03:50 PM 83.4°F28.6°C 66.1°F18.9°C 56% 3.0 mph S4.8 kmh S 5.0 mph8.0 kmh 29.91 in1012.9 mb 0.00 in0.0 mm 0.00 in0.0 mm 0.01 in0.3 mm
03:55 PM 83.9°F28.8°C 65.5°F18.6°C 54% 2.0 mph S3.2 kmh S 6.0 mph9.7 kmh 29.91 in1012.9 mb 0.00 in0.0 mm 0.00 in0.0 mm 0.01 in0.3 mm
04:00 PM 84.4°F29.1°C 67.5°F19.7°C 57% 2.0 mph SSE3.2 kmh SSE 7.0 mph11.3 kmh 29.90 in1012.5 mb 0.00 in0.0 mm 0.00 in0.0 mm 0.01 in0.3 mm
04:05 PM 84.8°F29.3°C 67.4°F19.7°C 56% 2.0 mph S3.2 kmh S 7.0 mph11.3 kmh 29.91 in1012.9 mb 0.00 in0.0 mm 0.00 in0.0 mm 0.01 in0.3 mm
04:10 PM 83.8°F28.8°C 63.7°F17.6°C 51% 4.0 mph SSE6.4 kmh SSE 12.0 mph19.3 kmh 29.91 in1012.9 mb 0.05 in1.3 mm 0.60 in15.2 mm 0.06 in1.5 mm
04:15 PM 80.3°F26.8°C 61.6°F16.4°C 53% 7.0 mph SSE11.3 kmh SSE 12.0 mph19.3 kmh 29.91 in1012.9 mb 0.08 in2.0 mm 0.36 in9.1 mm 0.09 in2.3 mm
04:20 PM 78.3°F25.7°C 52.0°F11.1°C 40% 5.0 mph SE8.0 kmh SE 12.0 mph19.3 kmh 29.91 in1012.9 mb 0.10 in2.5 mm 0.24 in6.1 mm 0.11 in2.8 mm
04:25 PM 76.6°F24.8°C 36.0°F2.2°C 23% 4.0 mph SE6.4 kmh SE 10.0 mph16.1 kmh 29.91 in1012.9 mb 0.11 in2.8 mm 0.12 in3.0 mm 0.12 in3.0 mm
04:30 PM 75.9°F24.4°C -18.6°F-28.1°C 0% 4.0 mph SE6.4 kmh SE 10.0 mph16.1 kmh 29.90 in1012.5 mb 0.11 in2.8 mm 0.00 in0.0 mm 0.12 in3.0 mm
04:35 PM 75.7°F24.3°C -18.6°F-28.1°C 0% 2.0 mph SE3.2 kmh SE 8.0 mph12.9 kmh 29.91 in1012.9 mb 0.11 in2.8 mm 0.00 in0.0 mm 0.12 in3.0 mm
04:40 PM 75.5°F24.2°C -18.6°F-28.1°C 0% 2.0 mph NE3.2 kmh NE 4.0 mph6.4 kmh 29.91 in1012.9 mb 0.11 in2.8 mm 0.00 in0.0 mm 0.12 in3.0 mm
04:45 PM 75.3°F24.1°C -18.6°F-28.1°C 0% 2.0 mph NNE3.2 kmh NNE 4.0 mph6.4 kmh 29.90 in1012.5 mb 0.11 in2.8 mm 0.00 in0.0 mm 0.12 in3.0 mm
04:50 PM 75.2°F24.0°C -18.6°F-28.1°C 0% 2.0 mph NE3.2 kmh NE 5.0 mph8.0 kmh 29.90 in1012.5 mb 0.11 in2.8 mm 0.00 in0.0 mm 0.12 in3.0 mm
04:55 PM 75.1°F23.9°C -18.6°F-28.1°C 0% 1.0 mph NNE1.6 kmh NNE 5.0 mph8.0 kmh 29.90 in1012.5 mb 0.11 in2.8 mm 0.00 in0.0 mm 0.12 in3.0 mm
05:00 PM 74.9°F23.8°C -18.6°F-28.1°C 0% 1.0 mph NNE1.6 kmh NNE 4.0 mph6.4 kmh 29.90 in1012.5 mb 0.11 in2.8 mm 0.00 in0.0 mm 0.12 in3.0 mm
05:05 PM 74.9°F23.8°C -18.6°F-28.1°C 0% 1.0 mph ENE1.6 kmh ENE 5.0 mph8.0 kmh 29.90 in1012.5 mb 0.11 in2.8 mm 0.00 in0.0 mm 0.12 in3.0 mm
05:10 PM 75.0°F23.9°C -18.6°F-28.1°C 0% 1.0 mph ESE1.6 kmh ESE 5.0 mph8.0 kmh 29.91 in1012.9 mb 0.05 in1.3 mm 0.00 in0.0 mm 0.12 in3.0 mm
05:15 PM 75.1°F23.9°C -18.6°F-28.1°C 0% 1.0 mph S1.6 kmh S 3.0 mph4.8 kmh 29.91 in1012.9 mb 0.03 in0.8 mm 0.00 in0.0 mm 0.12 in3.0 mm
05:20 PM 75.2°F24.0°C -18.6°F-28.1°C 0% 2.0 mph NW3.2 kmh NW 5.0 mph8.0 kmh 29.91 in1012.9 mb 0.01 in0.3 mm 0.00 in0.0 mm 0.12 in3.0 mm
05:25 PM 75.4°F24.1°C -18.6°F-28.1°C 0% 2.0 mph NW3.2 kmh NW 5.0 mph8.0 kmh 29.91 in1012.9 mb 0.00 in0.0 mm 0.00 in0.0 mm 0.12 in3.0 mm
05:30 PM 75.4°F24.1°C -18.6°F-28.1°C 0% 2.0 mph NNW3.2 kmh NNW 4.0 mph6.4 kmh 29.91 in1012.9 mb 0.00 in0.0 mm 0.00 in0.0 mm 0.12 in3.0 mm
05:35 PM 75.4°F24.1°C -18.6°F-28.1°C 0% 2.0 mph N3.2 kmh N 3.0 mph4.8 kmh 29.91 in1012.9 mb 0.00 in0.0 mm 0.00 in0.0 mm 0.12 in3.0 mm
05:40 PM 75.5°F24.2°C -18.6°F-28.1°C 0% 1.0 mph N1.6 kmh N 3.0 mph4.8 kmh 29.91 in1012.9 mb 0.00 in0.0 mm 0.00 in0.0 mm 0.12 in3.0 mm
05:45 PM 75.7°F24.3°C -18.6°F-28.1°C 0% 1.0 mph N1.6 kmh N 3.0 mph4.8 kmh 29.92 in1013.2 mb 0.00 in0.0 mm 0.00 in0.0 mm 0.12 in3.0 mm
05:50 PM 75.8°F24.3°C -18.6°F-28.1°C 0% 2.0 mph NE3.2 kmh NE 6.0 mph9.7 kmh 29.91 in1012.9 mb 0.00 in0.0 mm 0.00 in0.0 mm 0.12 in3.0 mm
05:55 PM 75.8°F24.3°C -18.6°F-28.1°C 0% 3.0 mph E4.8 kmh E 6.0 mph9.7 kmh 29.91 in1012.9 mb 0.00 in0.0 mm 0.00 in0.0 mm 0.12 in3.0 mm
06:00 PM 75.9°F24.4°C -18.6°F-28.1°C 0% 3.0 mph E4.8 kmh E 6.0 mph9.7 kmh 29.91 in1012.9 mb 0.00 in0.0 mm 0.00 in0.0 mm 0.12 in3.0 mm
06:05 PM 75.8°F24.3°C -18.6°F-28.1°C 0% 2.0 mph ESE3.2 kmh ESE 6.0 mph9.7 kmh 29.91 in1012.9 mb 0.00 in0.0 mm 0.00 in0.0 mm 0.12 in3.0 mm
06:10 PM 75.5°F24.2°C -18.6°F-28.1°C 0% 3.0 mph SE4.8 kmh SE 6.0 mph9.7 kmh 29.91 in1012.9 mb 0.00 in0.0 mm 0.00 in0.0 mm 0.12 in3.0 mm
06:15 PM 75.2°F24.0°C -18.6°F-28.1°C 0% 4.0 mph SE6.4 kmh SE 7.0 mph11.3 kmh 29.93 in1013.5 mb 0.04 in1.0 mm 0.48 in12.2 mm 0.16 in4.1 mm
06:20 PM 74.5°F23.6°C -18.6°F-28.1°C 0% 5.0 mph SE8.0 kmh SE 9.0 mph14.5 kmh 29.93 in1013.5 mb 0.23 in5.8 mm 2.28 in57.9 mm 0.35 in8.9 mm
06:25 PM 74.0°F23.3°C -18.6°F-28.1°C 0% 4.0 mph SE6.4 kmh SE 9.0 mph14.5 kmh 29.93 in1013.5 mb 0.32 in8.1 mm 1.08 in27.4 mm 0.44 in11.2 mm
06:30 PM 73.7°F23.2°C -18.6°F-28.1°C 0% 2.0 mph SE3.2 kmh SE 4.0 mph6.4 kmh 29.94 in1013.9 mb 0.32 in8.1 mm 0.00 in0.0 mm 0.44 in11.2 mm
06:35 PM 73.4°F23.0°C -18.6°F-28.1°C 0% 3.0 mph S4.8 kmh S 7.0 mph11.3 kmh 29.95 in1014.2 mb 0.34 in8.6 mm 0.24 in6.1 mm 0.46 in11.7 mm
06:40 PM 73.1°F22.8°C -18.6°F-28.1°C 0% 3.0 mph SW4.8 kmh SW 7.0 mph11.3 kmh 29.94 in1013.9 mb 0.34 in8.6 mm 0.00 in0.0 mm 0.46 in11.7 mm
06:45 PM 72.9°F22.7°C -18.6°F-28.1°C 0% 2.0 mph S3.2 kmh S 4.0 mph6.4 kmh 29.94 in1013.9 mb 0.35 in8.9 mm 0.12 in3.0 mm 0.47 in11.9 mm
06:50 PM 72.8°F22.7°C -18.6°F-28.1°C 0% 3.0 mph SE4.8 kmh SE 7.0 mph11.3 kmh 29.93 in1013.5 mb 0.36 in9.1 mm 0.12 in3.0 mm 0.48 in12.2 mm
06:55 PM 72.6°F22.6°C -18.6°F-28.1°C 0% 4.0 mph SE6.4 kmh SE 7.0 mph11.3 kmh 29.93 in1013.5 mb 0.36 in9.1 mm 0.00 in0.0 mm 0.48 in12.2 mm
07:00 PM 72.4°F22.4°C -18.6°F-28.1°C 0% 4.0 mph SSE6.4 kmh SSE 6.0 mph9.7 kmh 29.93 in1013.5 mb 0.36 in9.1 mm 0.00 in0.0 mm 0.48 in12.2 mm
07:05 PM 72.2°F22.3°C -18.6°F-28.1°C 0% 4.0 mph S6.4 kmh S 7.0 mph11.3 kmh 29.94 in1013.9 mb 0.37 in9.4 mm 0.12 in3.0 mm 0.49 in12.4 mm
07:10 PM 72.1°F22.3°C -18.6°F-28.1°C 0% 4.0 mph S6.4 kmh S 7.0 mph11.3 kmh 29.95 in1014.2 mb 0.37 in9.4 mm 0.00 in0.0 mm 0.49 in12.4 mm
07:15 PM 72.0°F22.2°C -18.6°F-28.1°C 0% 3.0 mph SW4.8 kmh SW 9.0 mph14.5 kmh 29.95 in1014.2 mb 0.31 in7.9 mm 0.00 in0.0 mm 0.49 in12.4 mm
07:20 PM 71.7°F22.1°C -18.6°F-28.1°C 0% 3.0 mph SW4.8 kmh SW 9.0 mph14.5 kmh 29.95 in1014.2 mb 0.13 in3.3 mm 0.00 in0.0 mm 0.51 in13.0 mm
07:25 PM 71.3°F21.8°C -18.6°F-28.1°C 0% 4.0 mph SW6.4 kmh SW 10.0 mph16.1 kmh 29.95 in1014.2 mb 0.08 in2.0 mm 0.00 in0.0 mm 0.52 in13.2 mm
07:30 PM 71.0°F21.7°C -18.6°F-28.1°C 0% 4.0 mph SW6.4 kmh SW 10.0 mph16.1 kmh 29.96 in1014.6 mb 0.09 in2.3 mm 0.12 in3.0 mm 0.53 in13.5 mm
07:35 PM 70.9°F21.6°C -18.6°F-28.1°C 0% 3.0 mph SW4.8 kmh SW 8.0 mph12.9 kmh 29.95 in1014.2 mb 0.08 in2.0 mm 0.00 in0.0 mm 0.54 in13.7 mm
07:40 PM 70.8°F21.6°C -18.6°F-28.1°C 0% 3.0 mph SW4.8 kmh SW 8.0 mph12.9 kmh 29.96 in1014.6 mb 0.08 in2.0 mm 0.00 in0.0 mm 0.54 in13.7 mm
07:45 PM 70.7°F21.5°C -18.6°F-28.1°C 0% 3.0 mph SSW4.8 kmh SSW 7.0 mph11.3 kmh 29.96 in1014.6 mb 0.07 in1.8 mm 0.00 in0.0 mm 0.54 in13.7 mm
07:50 PM 70.7°F21.5°C -18.6°F-28.1°C 0% 3.0 mph S4.8 kmh S 8.0 mph12.9 kmh 29.97 in1014.9 mb 0.07 in1.8 mm 0.00 in0.0 mm 0.55 in14.0 mm
07:55 PM 70.6°F21.4°C -18.6°F-28.1°C 0% 4.0 mph S6.4 kmh S 10.0 mph16.1 kmh 29.96 in1014.6 mb 0.08 in2.0 mm 0.12 in3.0 mm 0.56 in14.2 mm
08:00 PM 70.4°F21.3°C -18.6°F-28.1°C 0% 3.0 mph S4.8 kmh S 10.0 mph16.1 kmh 29.95 in1014.2 mb 0.11 in2.8 mm 0.03 in0.8 mm 0.59 in15.0 mm
08:05 PM 70.4°F21.3°C -18.6°F-28.1°C 0% 2.0 mph SSE3.2 kmh SSE 5.0 mph8.0 kmh 29.95 in1014.2 mb 0.11 in2.8 mm 0.00 in0.0 mm 0.60 in15.2 mm
08:10 PM 70.3°F21.3°C -18.6°F-28.1°C 0% 2.0 mph SE3.2 kmh SE 5.0 mph8.0 kmh 29.96 in1014.6 mb 0.12 in3.0 mm 0.12 in3.0 mm 0.61 in15.5 mm
08:15 PM 70.3°F21.3°C -18.6°F-28.1°C 0% 3.0 mph SSE4.8 kmh SSE 6.0 mph9.7 kmh 29.97 in1014.9 mb 0.12 in3.0 mm 0.00 in0.0 mm 0.61 in15.5 mm
08:20 PM 70.4°F21.3°C -18.6°F-28.1°C 0% 3.0 mph SSE4.8 kmh SSE 6.0 mph9.7 kmh 29.97 in1014.9 mb 0.12 in3.0 mm 0.00 in0.0 mm 0.63 in16.0 mm
08:25 PM 70.4°F21.3°C -18.6°F-28.1°C 0% 4.0 mph SSE6.4 kmh SSE 7.0 mph11.3 kmh 29.97 in1014.9 mb 0.13 in3.3 mm 0.12 in3.0 mm 0.65 in16.5 mm
08:30 PM 70.4°F21.3°C -18.6°F-28.1°C 0% 4.0 mph SSE6.4 kmh SSE 7.0 mph11.3 kmh 29.97 in1014.9 mb 0.13 in3.3 mm 0.00 in0.0 mm 0.66 in16.8 mm
08:35 PM 70.4°F21.3°C -18.6°F-28.1°C 0% 4.0 mph SSE6.4 kmh SSE 7.0 mph11.3 kmh 29.97 in1014.9 mb 0.14 in3.6 mm 0.12 in3.0 mm 0.68 in17.3 mm
08:40 PM 70.4°F21.3°C -18.6°F-28.1°C 0% 3.0 mph SSE4.8 kmh SSE 7.0 mph11.3 kmh 29.97 in1014.9 mb 0.15 in3.8 mm 0.12 in3.0 mm 0.69 in17.5 mm
08:45 PM 70.4°F21.3°C -18.6°F-28.1°C 0% 3.0 mph SSE4.8 kmh SSE 6.0 mph9.7 kmh 29.97 in1014.9 mb 0.17 in4.3 mm 0.24 in6.1 mm 0.71 in18.0 mm
08:50 PM 70.3°F21.3°C -18.6°F-28.1°C 0% 3.0 mph SSE4.8 kmh SSE 5.0 mph8.0 kmh 29.96 in1014.6 mb 0.17 in4.3 mm 0.00 in0.0 mm 0.72 in18.3 mm
08:55 PM 70.2°F21.2°C -18.6°F-28.1°C 0% 3.0 mph SSE4.8 kmh SSE 5.0 mph8.0 kmh 29.96 in1014.6 mb 0.17 in4.3 mm 0.00 in0.0 mm 0.73 in18.5 mm
09:00 PM 70.2°F21.2°C -18.6°F-28.1°C 0% 3.0 mph SE4.8 kmh SE 5.0 mph8.0 kmh 29.96 in1014.6 mb 0.15 in3.8 mm 0.00 in0.0 mm 0.74 in18.8 mm
09:05 PM 70.1°F21.2°C -18.6°F-28.1°C 0% 3.0 mph SE4.8 kmh SE 6.0 mph9.7 kmh 29.96 in1014.6 mb 0.14 in3.6 mm 0.00 in0.0 mm 0.74 in18.8 mm
09:10 PM 70.0°F21.1°C -18.6°F-28.1°C 0% 3.0 mph SE4.8 kmh SE 6.0 mph9.7 kmh 29.96 in1014.6 mb 0.14 in3.6 mm 0.00 in0.0 mm 0.75 in19.1 mm
09:15 PM 70.0°F21.1°C -18.6°F-28.1°C 0% 3.0 mph SE4.8 kmh SE 5.0 mph8.0 kmh 29.96 in1014.6 mb 0.13 in3.3 mm 0.00 in0.0 mm 0.75 in19.1 mm
09:20 PM 70.0°F21.1°C -18.6°F-28.1°C 0% 2.0 mph SE3.2 kmh SE 4.0 mph6.4 kmh 29.96 in1014.6 mb 0.13 in3.3 mm 0.00 in0.0 mm 0.76 in19.3 mm
09:25 PM 70.1°F21.2°C -18.6°F-28.1°C 0% 2.0 mph SE3.2 kmh SE 4.0 mph6.4 kmh 29.96 in1014.6 mb 0.11 in2.8 mm 0.00 in0.0 mm 0.76 in19.3 mm
09:30 PM 70.1°F21.2°C -18.6°F-28.1°C 0% 2.0 mph SE3.2 kmh SE 4.0 mph6.4 kmh 29.95 in1014.2 mb 0.10 in2.5 mm 0.00 in0.0 mm 0.76 in19.3 mm
09:35 PM 70.2°F21.2°C -18.6°F-28.1°C 0% 2.0 mph SE3.2 kmh SE 4.0 mph6.4 kmh 29.95 in1014.2 mb 0.08 in2.0 mm 0.00 in0.0 mm 0.76 in19.3 mm
09:40 PM 70.2°F21.2°C -18.6°F-28.1°C 0% 2.0 mph SE3.2 kmh SE 4.0 mph6.4 kmh 29.95 in1014.2 mb 0.08 in2.0 mm 0.00 in0.0 mm 0.77 in19.6 mm
09:45 PM 70.2°F21.2°C -18.6°F-28.1°C 0% 2.0 mph SE3.2 kmh SE 4.0 mph6.4 kmh 29.95 in1014.2 mb 0.06 in1.5 mm 0.00 in0.0 mm 0.77 in19.6 mm
09:50 PM 70.2°F21.2°C -18.6°F-28.1°C 0% 2.0 mph SE3.2 kmh SE 4.0 mph6.4 kmh 29.95 in1014.2 mb 0.05 in1.3 mm 0.00 in0.0 mm 0.77 in19.6 mm
09:55 PM 70.2°F21.2°C -18.6°F-28.1°C 0% 2.0 mph SE3.2 kmh SE 4.0 mph6.4 kmh 29.95 in1014.2 mb 0.04 in1.0 mm 0.00 in0.0 mm 0.77 in19.6 mm
10:00 PM 70.3°F21.3°C -18.6°F-28.1°C 0% 2.0 mph SE3.2 kmh SE 5.0 mph8.0 kmh 29.95 in1014.2 mb 0.03 in0.8 mm 0.00 in0.0 mm 0.77 in19.6 mm
10:05 PM 70.3°F21.3°C -18.6°F-28.1°C 0% 3.0 mph SE4.8 kmh SE 8.0 mph12.9 kmh 29.96 in1014.6 mb 0.03 in0.8 mm 0.00 in0.0 mm 0.77 in19.6 mm
10:10 PM 70.2°F21.2°C -18.6°F-28.1°C 0% 4.0 mph SE6.4 kmh SE 9.0 mph14.5 kmh 29.96 in1014.6 mb 0.02 in0.5 mm 0.00 in0.0 mm 0.77 in19.6 mm
10:15 PM 70.2°F21.2°C -18.6°F-28.1°C 0% 4.0 mph SE6.4 kmh SE 9.0 mph14.5 kmh 29.96 in1014.6 mb 0.02 in0.5 mm 0.00 in0.0 mm 0.77 in19.6 mm
10:20 PM 70.2°F21.2°C -18.6°F-28.1°C 0% 4.0 mph SE6.4 kmh SE 8.0 mph12.9 kmh 29.96 in1014.6 mb 0.01 in0.3 mm 0.00 in0.0 mm 0.77 in19.6 mm
10:25 PM 70.1°F21.2°C -18.6°F-28.1°C 0% 5.0 mph SE8.0 kmh SE 8.0 mph12.9 kmh 29.97 in1014.9 mb 0.02 in0.5 mm 0.12 in3.0 mm 0.78 in19.8 mm
10:30 PM 70.0°F21.1°C -18.6°F-28.1°C 0% 5.0 mph SE8.0 kmh SE 9.0 mph14.5 kmh 29.97 in1014.9 mb 0.02 in0.5 mm 0.00 in0.0 mm 0.78 in19.8 mm
10:35 PM 69.8°F21.0°C -18.6°F-28.1°C 0% 4.0 mph SE6.4 kmh SE 9.0 mph14.5 kmh 29.97 in1014.9 mb 0.02 in0.5 mm 0.00 in0.0 mm 0.78 in19.8 mm
10:40 PM 69.7°F20.9°C -18.6°F-28.1°C 0% 4.0 mph SE6.4 kmh SE 8.0 mph12.9 kmh 29.96 in1014.6 mb 0.01 in0.3 mm 0.00 in0.0 mm 0.78 in19.8 mm
10:45 PM 69.5°F20.8°C -18.6°F-28.1°C 0% 4.0 mph SE6.4 kmh SE 9.0 mph14.5 kmh 29.96 in1014.6 mb 0.01 in0.3 mm 0.00 in0.0 mm 0.78 in19.8 mm
10:50 PM 69.4°F20.8°C -18.6°F-28.1°C 0% 5.0 mph SE8.0 kmh SE 9.0 mph14.5 kmh 29.96 in1014.6 mb 0.01 in0.3 mm 0.00 in0.0 mm 0.78 in19.8 mm
10:55 PM 69.2°F20.7°C -18.6°F-28.1°C 0% 5.0 mph SE8.0 kmh SE 8.0 mph12.9 kmh 29.97 in1014.9 mb 0.01 in0.3 mm 0.00 in0.0 mm 0.78 in19.8 mm
11:00 PM 69.1°F20.6°C -18.6°F-28.1°C 0% 4.0 mph SE6.4 kmh SE 7.0 mph11.3 kmh 29.97 in1014.9 mb 0.01 in0.3 mm 0.00 in0.0 mm 0.78 in19.8 mm
11:05 PM 69.0°F20.6°C -18.6°F-28.1°C 0% 5.0 mph SE8.0 kmh SE 8.0 mph12.9 kmh 29.97 in1014.9 mb 0.01 in0.3 mm 0.00 in0.0 mm 0.78 in19.8 mm
11:10 PM 69.0°F20.6°C -18.6°F-28.1°C 0% 5.0 mph SE8.0 kmh SE 8.0 mph12.9 kmh 29.97 in1014.9 mb 0.01 in0.3 mm 0.00 in0.0 mm 0.78 in19.8 mm
11:15 PM 69.1°F20.6°C -18.6°F-28.1°C 0% 4.0 mph SE6.4 kmh SE 8.0 mph12.9 kmh 29.97 in1014.9 mb 0.01 in0.3 mm 0.00 in0.0 mm 0.78 in19.8 mm
11:20 PM 69.2°F20.7°C -18.6°F-28.1°C 0% 4.0 mph SSE6.4 kmh SSE 7.0 mph11.3 kmh 29.98 in1015.2 mb 0.01 in0.3 mm 0.00 in0.0 mm 0.78 in19.8 mm
11:25 PM 69.2°F20.7°C -18.6°F-28.1°C 0% 3.0 mph SSE4.8 kmh SSE 7.0 mph11.3 kmh 29.98 in1015.2 mb 0.00 in0.0 mm 0.00 in0.0 mm 0.78 in19.8 mm
11:30 PM 69.2°F20.7°C -18.6°F-28.1°C 0% 3.0 mph SSE4.8 kmh SSE 7.0 mph11.3 kmh 29.97 in1014.9 mb 0.01 in0.3 mm 0.12 in3.0 mm 0.79 in20.1 mm
11:35 PM 69.1°F20.6°C -18.6°F-28.1°C 0% 4.0 mph SSE6.4 kmh SSE 8.0 mph12.9 kmh 29.97 in1014.9 mb 0.01 in0.3 mm 0.00 in0.0 mm 0.79 in20.1 mm
11:40 PM 68.9°F20.5°C -18.6°F-28.1°C 0% 5.0 mph SE8.0 kmh SE 8.0 mph12.9 kmh 29.97 in1014.9 mb 0.02 in0.5 mm 0.12 in3.0 mm 0.80 in20.3 mm
11:45 PM 68.8°F20.4°C -18.6°F-28.1°C 0% 5.0 mph SE8.0 kmh SE 8.0 mph12.9 kmh 29.97 in1014.9 mb 0.02 in0.5 mm 0.00 in0.0 mm 0.80 in20.3 mm
11:50 PM 68.8°F20.4°C -18.6°F-28.1°C 0% 4.0 mph SE6.4 kmh SE 8.0 mph12.9 kmh 29.96 in1014.6 mb 0.03 in0.8 mm 0.12 in3.0 mm 0.81 in20.6 mm
11:55 PM 68.7°F20.4°C -18.6°F-28.1°C 0% 4.0 mph SE6.4 kmh SE 8.0 mph12.9 kmh 29.96 in1014.6 mb 0.03 in0.8 mm 0.00 in0.0 mm 0.81 in20.6 mm